sim
Sign-in with your pilot id or email,
or register
Callsign
Passwort

Schedule Details

Flight Number: EWG1752 (3)
Departure: Munich Airport (EDDM) at 16:00
Arrival: London Stansted Airport (EGSS) at 17:50
Route: Eurowings Passenger Schedule. Enter filed route here before submitting Pirep.

Weather Information
Getting current METAR information for EDDM 240050Z VRB02KT CAVOK 12/11 Q1009 NOSIG
Getting current METAR information for EGSS 240050Z AUTO 23010KT 9999 NCD 08/07 Q0999

Schedule Frequency

Route Map